createdAt,value
2018-07-17T00:00:33.966Z,15.24
2018-07-17T00:03:04.996Z,15.27
2018-07-17T00:08:11.829Z,15.40
2018-07-17T00:13:16.671Z,15.40
2018-07-17T00:20:58.421Z,15.44
2018-07-17T00:23:27.486Z,15.29
2018-07-17T00:25:57.492Z,15.22
2018-07-17T00:31:02.323Z,15.23
2018-07-17T00:33:31.384Z,15.07
2018-07-17T00:36:04.018Z,14.94
2018-07-17T00:38:36.912Z,14.89
2018-07-17T00:43:46.173Z,15.08
2018-07-17T00:46:15.250Z,15.07
2018-07-17T00:48:49.994Z,15.02
2018-07-17T00:51:19.053Z,14.98
2018-07-17T00:53:48.116Z,14.99
2018-07-17T00:58:53.125Z,14.93
2018-07-17T01:01:30.637Z,15.06
2018-07-17T01:04:05.339Z,14.84
2018-07-17T01:06:39.775Z,14.68
2018-07-17T01:09:16.506Z,14.55
2018-07-17T01:11:51.165Z,14.51
2018-07-17T01:14:20.211Z,14.46
2018-07-17T01:16:49.286Z,14.46
2018-07-17T01:19:19.314Z,14.46
2018-07-17T01:21:48.391Z,14.48
2018-07-17T01:24:17.473Z,14.43
2018-07-17T01:26:46.525Z,14.41
2018-07-17T01:29:15.643Z,14.36
2018-07-17T01:34:20.473Z,14.45
2018-07-17T01:36:51.461Z,14.48
2018-07-17T01:39:20.537Z,14.35
2018-07-17T01:41:49.641Z,14.39
2018-07-17T01:44:18.708Z,14.47
2018-07-17T01:46:50.980Z,14.44
2018-07-17T01:49:20.989Z,14.40
2018-07-17T01:51:51.018Z,14.39
2018-07-17T01:54:20.084Z,14.42
2018-07-17T01:56:49.147Z,14.44
2018-07-17T01:59:18.317Z,14.43
2018-07-17T02:01:47.378Z,14.37
2018-07-17T02:04:17.431Z,14.38
2018-07-17T02:09:22.246Z,14.43
2018-07-17T02:14:08.715Z,14.46
2018-07-17T02:16:37.785Z,14.48
2018-07-17T02:19:06.991Z,14.46
2018-07-17T02:21:36.107Z,14.48
2018-07-17T02:24:05.183Z,14.45
2018-07-17T02:26:34.249Z,14.30
2018-07-17T02:29:04.344Z,14.29
2018-07-17T02:31:34.346Z,14.30
2018-07-17T02:36:39.155Z,14.43
2018-07-17T02:39:11.283Z,14.49
2018-07-17T02:41:42.333Z,14.52
2018-07-17T02:44:21.056Z,14.52
2018-07-17T02:46:51.065Z,14.53
2018-07-17T02:51:55.838Z,14.64
2018-07-17T02:57:00.678Z,14.67
2018-07-17T02:59:29.771Z,14.67
2018-07-17T03:01:58.835Z,14.66
2018-07-17T03:04:29.908Z,14.68
2018-07-17T03:06:59.078Z,14.71
2018-07-17T03:12:05.846Z,14.79
2018-07-17T03:14:34.927Z,14.80
2018-07-17T03:17:04.967Z,14.83
2018-07-17T03:19:34.029Z,14.81
2018-07-17T03:22:03.095Z,14.81
2018-07-17T03:24:32.199Z,14.81
2018-07-17T03:27:01.230Z,14.79
2018-07-17T03:29:30.324Z,14.85
2018-07-17T03:31:59.393Z,14.84
2018-07-17T03:34:28.467Z,14.83
2018-07-17T03:36:57.673Z,14.82
2018-07-17T03:39:26.754Z,14.84
2018-07-17T03:41:55.822Z,14.86
2018-07-17T03:44:30.187Z,14.84
2018-07-17T03:52:10.313Z,14.86
2018-07-17T03:54:39.362Z,14.83
2018-07-17T03:57:08.918Z,14.79
2018-07-17T03:59:46.174Z,14.80
2018-07-17T04:02:15.257Z,14.80
2018-07-17T04:04:44.312Z,14.82
2018-07-17T04:07:13.393Z,14.93
2018-07-17T04:09:42.461Z,14.97
2018-07-17T04:12:11.520Z,15.02
2018-07-17T04:14:42.473Z,15.06
2018-07-17T04:17:11.798Z,15.08
2018-07-17T04:22:16.799Z,15.21
2018-07-17T04:27:21.623Z,15.36
2018-07-17T04:29:51.080Z,15.46
2018-07-17T04:32:20.181Z,15.55
2018-07-17T04:34:51.222Z,15.60
2018-07-17T04:37:22.266Z,15.64
2018-07-17T04:39:57.016Z,15.69
2018-07-17T04:42:26.096Z,15.74
2018-07-17T04:44:56.121Z,15.75
2018-07-17T04:47:27.157Z,15.76
2018-07-17T04:49:57.489Z,15.80
2018-07-17T04:52:30.358Z,15.85
2018-07-17T04:57:37.075Z,15.96
2018-07-17T05:00:06.453Z,16.00
2018-07-17T05:05:13.221Z,16.18
2018-07-17T05:07:42.425Z,16.31
2018-07-17T05:10:16.231Z,16.39
2018-07-17T05:12:45.422Z,16.44
2018-07-17T05:15:15.493Z,16.55
2018-07-17T05:17:46.534Z,16.57
2018-07-17T05:22:51.413Z,16.70
2018-07-17T05:25:21.316Z,16.77
2018-07-17T05:27:50.369Z,16.88
2018-07-17T05:30:19.551Z,17.01
2018-07-17T05:32:49.629Z,17.23
2018-07-17T05:35:22.341Z,17.34
2018-07-17T05:40:27.078Z,17.54
2018-07-17T05:42:57.045Z,17.68
2018-07-17T05:45:26.132Z,17.73
2018-07-17T05:47:55.369Z,17.86
2018-07-17T05:50:24.424Z,17.95
2018-07-17T05:52:55.449Z,18.07
2018-07-17T05:58:01.013Z,18.19
2018-07-17T06:03:07.893Z,18.40
2018-07-17T06:05:36.959Z,18.47
2018-07-17T06:08:06.257Z,18.48
2018-07-17T06:10:35.374Z,18.59
2018-07-17T06:13:04.420Z,18.66
2018-07-17T06:15:34.425Z,18.74
2018-07-17T06:18:05.444Z,18.79
2018-07-17T06:23:15.986Z,18.99
2018-07-17T06:25:45.062Z,19.02
2018-07-17T06:28:15.318Z,19.18
2018-07-17T06:30:45.400Z,19.30
2018-07-17T06:35:50.598Z,19.57
2018-07-17T06:38:19.645Z,19.68
2018-07-17T06:40:49.737Z,19.65
2018-07-17T06:43:18.934Z,19.74
2018-07-17T06:45:47.982Z,19.91
2018-07-17T06:53:29.689Z,20.07
2018-07-17T06:56:01.952Z,20.12
2018-07-17T06:58:31.190Z,20.15
2018-07-17T07:03:36.674Z,20.35
2018-07-17T07:06:05.725Z,20.45
2018-07-17T07:08:36.799Z,20.62
2018-07-17T07:11:05.828Z,20.82
2018-07-17T07:13:35.135Z,20.71
2018-07-17T07:16:04.197Z,20.81
2018-07-17T07:18:33.257Z,20.90
2018-07-17T07:21:02.584Z,20.97
2018-07-17T07:23:32.812Z,21.13
2018-07-17T07:26:01.860Z,21.26
2018-07-17T07:28:32.874Z,21.36
2018-07-17T07:33:37.633Z,21.60
2018-07-17T07:36:06.697Z,21.77
2018-07-17T07:38:36.946Z,21.72
2018-07-17T07:43:41.987Z,21.98
2018-07-17T07:46:15.326Z,22.11
2018-07-17T07:48:44.455Z,22.21
2018-07-17T07:51:14.507Z,22.28
2018-07-17T07:53:43.549Z,22.35
2018-07-17T07:56:12.869Z,22.26
2018-07-17T07:58:42.942Z,22.49
2018-07-17T08:01:11.977Z,22.37
2018-07-17T08:03:41.111Z,22.50
2018-07-17T08:08:45.794Z,22.62
2018-07-17T08:13:50.537Z,22.73
2018-07-17T08:16:19.977Z,23.08
2018-07-17T08:18:49.035Z,23.12
2018-07-17T08:21:18.099Z,22.94
2018-07-17T08:26:25.643Z,23.22
2018-07-17T08:28:54.841Z,23.46
2018-07-17T08:31:25.212Z,23.60
2018-07-17T08:33:54.280Z,23.70
2018-07-17T08:39:01.337Z,23.55
2018-07-17T08:44:06.998Z,23.96
2018-07-17T08:46:37.314Z,24.38
2018-07-17T08:51:45.698Z,24.99
2018-07-17T08:56:50.590Z,25.10
2018-07-17T08:59:19.641Z,25.35
2018-07-17T09:01:50.838Z,24.96
2018-07-17T09:04:20.817Z,24.76
2018-07-17T09:09:25.772Z,25.12
2018-07-17T09:11:54.809Z,25.42
2018-07-17T09:14:24.153Z,24.62
2018-07-17T09:16:53.210Z,24.59
2018-07-17T09:19:22.284Z,24.74
2018-07-17T09:21:51.741Z,25.27
2018-07-17T09:24:20.948Z,25.60
2018-07-17T09:26:50.043Z,25.75
2018-07-17T09:29:21.078Z,26.83
2018-07-17T09:31:50.730Z,27.74
2018-07-17T09:34:19.804Z,28.01
2018-07-17T09:39:24.621Z,28.65
2018-07-17T09:44:29.414Z,29.44
2018-07-17T09:46:58.442Z,31.40
2018-07-17T09:49:27.491Z,32.28
2018-07-17T09:51:56.619Z,30.45
2018-07-17T09:54:25.667Z,30.31
2018-07-17T09:56:54.721Z,31.48
2018-07-17T10:04:59.500Z,31.02
2018-07-17T10:07:28.577Z,31.36
2018-07-17T10:09:57.633Z,29.98
2018-07-17T10:12:26.721Z,27.48
2018-07-17T10:17:31.781Z,29.82
2018-07-17T10:20:00.923Z,30.45
2018-07-17T10:22:29.900Z,30.94
2018-07-17T10:24:59.319Z,32.72
2018-07-17T10:27:28.521Z,33.03
2018-07-17T10:30:01.612Z,32.00
2018-07-17T10:32:30.661Z,32.33
2018-07-17T10:35:00.945Z,32.26
2018-07-17T10:37:30.012Z,32.67
2018-07-17T10:40:00.642Z,32.76
2018-07-17T10:42:32.617Z,32.67
2018-07-17T10:47:37.764Z,33.98
2018-07-17T10:52:42.785Z,33.25
2018-07-17T10:55:12.955Z,33.94
2018-07-17T10:57:42.001Z,35.78
2018-07-17T11:00:11.045Z,35.54
2018-07-17T11:02:40.480Z,34.85
2018-07-17T11:05:09.538Z,34.07
2018-07-17T11:07:38.582Z,33.85
2018-07-17T11:10:07.923Z,33.55
2018-07-17T11:12:36.971Z,36.06
2018-07-17T11:20:18.921Z,34.23
2018-07-17T11:22:48.200Z,35.39
2018-07-17T11:25:18.169Z,36.54
2018-07-17T11:27:47.223Z,36.82
2018-07-17T11:30:16.359Z,36.98
2018-07-17T11:32:45.424Z,35.34
2018-07-17T11:37:50.342Z,35.66
2018-07-17T11:45:31.249Z,35.32
2018-07-17T11:50:36.246Z,36.04
2018-07-17T11:53:05.450Z,35.89
2018-07-17T11:55:34.473Z,35.64
2018-07-17T11:58:03.538Z,33.58
2018-07-17T12:00:32.597Z,33.03
2018-07-17T12:03:05.021Z,31.49
2018-07-17T12:08:10.266Z,29.40
2018-07-17T12:10:39.307Z,28.50
2018-07-17T12:13:08.387Z,27.48
2018-07-17T12:15:37.677Z,25.89
2018-07-17T12:18:06.712Z,24.58
2018-07-17T12:20:37.870Z,23.76
2018-07-17T12:23:06.789Z,22.69
2018-07-17T12:25:37.802Z,20.00
2018-07-17T12:30:42.679Z,18.36
2018-07-17T12:33:13.864Z,18.05
2018-07-17T12:35:43.083Z,18.36
2018-07-17T12:38:12.127Z,18.43
2018-07-17T12:40:41.190Z,18.38
2018-07-17T12:43:10.673Z,18.61
2018-07-17T12:45:39.738Z,19.03
2018-07-17T12:48:08.869Z,19.81
2018-07-17T12:50:38.181Z,20.24
2018-07-17T12:53:07.235Z,20.72
2018-07-17T12:55:36.291Z,20.89
2018-07-17T13:00:42.109Z,21.54
2018-07-17T13:03:12.097Z,22.40
2018-07-17T13:05:41.457Z,22.06
2018-07-17T13:08:10.566Z,21.80
2018-07-17T13:10:39.614Z,21.66
2018-07-17T13:15:44.489Z,21.94
2018-07-17T13:18:15.504Z,22.12
2018-07-17T13:20:49.421Z,22.55
2018-07-17T13:25:54.344Z,23.58
2018-07-17T13:28:23.393Z,23.58
2018-07-17T13:30:54.577Z,23.88
2018-07-17T13:35:59.390Z,25.84
2018-07-17T13:38:28.857Z,25.96
2018-07-17T13:40:58.890Z,28.34
2018-07-17T13:46:03.772Z,30.29
2018-07-17T13:51:08.510Z,31.56
2018-07-17T13:53:41.664Z,31.51
2018-07-17T13:56:14.311Z,31.30
2018-07-17T14:03:57.240Z,30.00
2018-07-17T14:06:27.249Z,29.73
2018-07-17T14:08:58.291Z,28.37
2018-07-17T14:11:31.071Z,27.52
2018-07-17T14:14:01.086Z,27.24
2018-07-17T14:16:34.490Z,26.02
2018-07-17T14:19:14.188Z,25.23
2018-07-17T14:24:18.996Z,24.24
2018-07-17T14:26:49.486Z,24.12
2018-07-17T14:29:18.529Z,24.36
2018-07-17T14:31:47.694Z,26.41
2018-07-17T14:34:17.065Z,28.20
2018-07-17T14:36:49.685Z,26.92
2018-07-17T14:39:21.062Z,25.84
2018-07-17T14:41:50.104Z,25.34
2018-07-17T14:46:55.168Z,24.37
2018-07-17T14:49:24.315Z,24.67
2018-07-17T14:51:53.366Z,24.74
2018-07-17T14:56:58.232Z,25.77
2018-07-17T14:59:27.473Z,26.24
2018-07-17T15:01:56.858Z,28.66
2018-07-17T15:04:25.931Z,30.39
2018-07-17T15:06:55.273Z,28.33
2018-07-17T15:09:28.482Z,28.15
2018-07-17T15:14:33.342Z,32.17
2018-07-17T15:17:02.534Z,32.59
2018-07-17T15:19:31.581Z,32.55
2018-07-17T15:22:00.641Z,32.20
2018-07-17T15:24:29.737Z,33.00
2018-07-17T15:26:58.814Z,31.67
2018-07-17T15:29:31.478Z,31.06
2018-07-17T15:32:06.456Z,33.26
2018-07-17T15:34:35.433Z,29.76
2018-07-17T15:37:04.486Z,29.85
2018-07-17T15:39:34.270Z,31.04
2018-07-17T15:42:07.856Z,28.94
2018-07-17T15:44:37.382Z,29.07
2018-07-17T15:47:06.443Z,29.04
2018-07-17T15:49:36.474Z,29.07
2018-07-17T15:52:05.642Z,30.09
2018-07-17T15:54:34.744Z,29.12
2018-07-17T15:57:03.769Z,28.92
2018-07-17T15:59:32.821Z,28.16
2018-07-17T16:02:02.101Z,29.74
2018-07-17T16:04:35.098Z,27.12
2018-07-17T16:07:09.779Z,25.22
2018-07-17T16:09:46.236Z,24.45
2018-07-17T16:12:20.541Z,23.57
2018-07-17T16:14:57.148Z,23.51
2018-07-17T16:17:35.956Z,23.28
2018-07-17T16:20:10.644Z,22.99
2018-07-17T16:25:23.081Z,22.74
2018-07-17T16:27:58.811Z,22.94
2018-07-17T16:30:31.753Z,22.93
2018-07-17T16:33:00.996Z,23.20
2018-07-17T16:35:32.808Z,23.83
2018-07-17T16:40:42.411Z,24.43
2018-07-17T16:43:12.109Z,24.35
2018-07-17T16:45:42.851Z,23.81
2018-07-17T16:50:56.522Z,23.34
2018-07-17T16:53:27.523Z,22.96
2018-07-17T16:55:56.982Z,22.82
2018-07-17T16:58:26.182Z,22.68
2018-07-17T17:00:57.172Z,22.58
2018-07-17T17:03:26.543Z,22.45
2018-07-17T17:05:55.832Z,22.40
2018-07-17T17:11:00.693Z,22.31
2018-07-17T17:13:29.749Z,22.24
2018-07-17T17:18:34.617Z,22.29
2018-07-17T17:21:07.970Z,22.29
2018-07-17T17:23:42.687Z,22.25
2018-07-17T17:26:11.873Z,20.80
2018-07-17T17:28:40.924Z,19.76
2018-07-17T17:31:14.179Z,18.99
2018-07-17T17:33:43.215Z,18.45
2018-07-17T17:36:12.327Z,18.29
2018-07-17T17:38:41.338Z,18.05
2018-07-17T17:41:12.342Z,17.83
2018-07-17T17:43:41.398Z,17.68
2018-07-17T17:46:10.453Z,17.52
2018-07-17T17:48:40.462Z,17.56
2018-07-17T17:53:45.240Z,17.44
2018-07-17T17:56:18.326Z,17.19
2018-07-17T17:58:48.334Z,17.06
2018-07-17T18:01:17.414Z,17.12
2018-07-17T18:06:22.803Z,17.16
2018-07-17T18:08:51.930Z,17.23
2018-07-17T18:11:20.957Z,17.43
2018-07-17T18:13:50.017Z,17.26
2018-07-17T18:16:19.181Z,17.36
2018-07-17T18:21:24.230Z,17.41
2018-07-17T18:23:53.325Z,17.56
2018-07-17T18:26:22.363Z,17.39
2018-07-17T18:28:54.816Z,17.35
2018-07-17T18:31:23.884Z,17.30
2018-07-17T18:33:53.218Z,17.31
2018-07-17T18:41:33.863Z,17.22
2018-07-17T18:44:03.846Z,17.20
2018-07-17T18:46:32.906Z,17.04
2018-07-17T18:49:02.227Z,16.98
2018-07-17T18:51:31.270Z,16.94
2018-07-17T18:54:00.330Z,16.87
2018-07-17T18:56:30.374Z,16.81
2018-07-17T18:59:01.604Z,16.80
2018-07-17T19:01:34.065Z,16.81
2018-07-17T19:04:05.054Z,16.77
2018-07-17T19:06:34.166Z,16.69
2018-07-17T19:09:05.191Z,16.68
2018-07-17T19:11:34.262Z,16.58
2018-07-17T19:14:03.474Z,16.53
2018-07-17T19:16:33.543Z,16.60
2018-07-17T19:19:02.599Z,16.60
2018-07-17T19:24:08.372Z,16.62
2018-07-17T19:26:39.421Z,16.70
2018-07-17T19:31:45.335Z,16.70
2018-07-17T19:34:15.320Z,16.73
2018-07-17T19:39:20.105Z,16.68
2018-07-17T19:44:24.953Z,16.90
2018-07-17T19:46:54.006Z,16.84
2018-07-17T19:51:58.910Z,16.84
2018-07-17T19:54:27.973Z,16.86
2018-07-17T19:56:57.992Z,16.78
2018-07-17T20:02:02.899Z,16.83
2018-07-17T20:09:52.785Z,16.90
2018-07-17T20:12:21.843Z,16.97
2018-07-17T20:17:26.624Z,16.88
2018-07-17T20:22:31.475Z,16.95
2018-07-17T20:25:04.194Z,16.89
2018-07-17T20:27:35.169Z,16.82
2018-07-17T20:30:06.149Z,16.86
2018-07-17T20:32:35.216Z,16.80
2018-07-17T20:37:40.011Z,16.79
2018-07-17T20:40:12.365Z,16.82
2018-07-17T20:42:45.047Z,16.73
2018-07-17T20:45:16.062Z,16.65
2018-07-17T20:50:21.280Z,16.59
2018-07-17T20:52:50.367Z,16.59
2018-07-17T20:55:19.373Z,16.56
2018-07-17T20:57:52.306Z,16.56
2018-07-17T21:02:58.194Z,16.44
2018-07-17T21:05:28.203Z,16.35
2018-07-17T21:10:34.033Z,16.22
2018-07-17T21:13:03.100Z,16.15
2018-07-17T21:15:35.250Z,16.03
2018-07-17T21:20:40.025Z,16.02
2018-07-17T21:23:09.122Z,15.98
2018-07-17T21:25:38.193Z,15.96
2018-07-17T21:33:19.721Z,16.09
2018-07-17T21:38:24.561Z,15.95
2018-07-17T21:40:53.622Z,15.87
2018-07-17T21:43:22.746Z,15.75
2018-07-17T21:45:51.812Z,15.78
2018-07-17T21:48:20.876Z,15.70
2018-07-17T21:50:51.909Z,15.72
2018-07-17T22:01:08.701Z,15.83
2018-07-17T22:06:18.433Z,15.72
2018-07-17T22:08:51.323Z,15.73
2018-07-17T22:13:56.101Z,15.54
2018-07-17T22:16:25.170Z,15.51
2018-07-17T22:21:33.505Z,15.53
2018-07-17T22:26:38.271Z,15.48
2018-07-17T22:29:11.879Z,15.41
2018-07-17T22:31:41.882Z,15.36
2018-07-17T22:34:10.938Z,15.32
2018-07-17T22:36:39.990Z,15.28
2018-07-17T22:41:45.746Z,15.26
2018-07-17T22:46:51.522Z,15.24
2018-07-17T22:51:56.281Z,15.30
2018-07-17T22:54:25.337Z,15.35
2018-07-17T22:56:59.281Z,15.37
2018-07-17T23:02:07.616Z,15.39
2018-07-17T23:04:36.738Z,15.44
2018-07-17T23:07:05.798Z,15.41
2018-07-17T23:09:34.858Z,15.50
2018-07-17T23:12:04.948Z,15.53
2018-07-17T23:14:34.002Z,15.61
2018-07-17T23:17:03.050Z,15.66
2018-07-17T23:19:32.130Z,15.70
2018-07-17T23:24:37.383Z,15.58
2018-07-17T23:27:07.411Z,15.59
2018-07-17T23:34:47.933Z,15.59
2018-07-17T23:37:25.398Z,15.53
2018-07-17T23:39:56.359Z,15.52
2018-07-17T23:42:25.408Z,15.57
2018-07-17T23:44:54.465Z,15.58
2018-07-17T23:47:29.384Z,15.58
2018-07-17T23:49:59.378Z,15.53
2018-07-17T23:52:30.464Z,15.61
2018-07-17T23:54:59.535Z,15.77
